sensor_id;sensor_type;location;lat;lon;timestamp;P1;durP1;ratioP1;P2;durP2;ratioP2
74715;SDS011;63234;37.558;127.058;2023-06-22T09:41:05;9.77;;;7.18;;
74715;SDS011;63234;37.558;127.058;2023-06-22T09:43:31;11.45;;;7.20;;
74715;SDS011;63234;37.558;127.058;2023-06-22T09:46:00;18.92;;;16.80;;
74715;SDS011;63234;37.558;127.058;2023-06-22T09:48:27;22.92;;;11.98;;
74715;SDS011;63234;37.558;127.058;2023-06-22T09:50:53;7.72;;;6.82;;
74715;SDS011;63234;37.558;127.058;2023-06-22T09:53:19;8.90;;;7.13;;
74715;SDS011;63234;37.558;127.058;2023-06-22T09:55:44;14.32;;;8.02;;
74715;SDS011;63234;37.558;127.058;2023-06-22T09:58:10;7.85;;;7.03;;
74715;SDS011;63234;37.558;127.058;2023-06-22T10:00:35;14.80;;;6.93;;
74715;SDS011;63234;37.558;127.058;2023-06-22T10:03:01;11.10;;;7.80;;
74715;SDS011;63234;37.558;127.058;2023-06-22T10:05:26;8.13;;;6.97;;
74715;SDS011;63234;37.558;127.058;2023-06-22T10:07:52;10.38;;;6.78;;
74715;SDS011;63234;37.558;127.058;2023-06-22T10:10:17;7.97;;;6.57;;
74715;SDS011;63234;37.558;127.058;2023-06-22T10:12:47;9.95;;;6.03;;
74715;SDS011;63234;37.558;127.058;2023-06-22T10:15:16;9.48;;;6.63;;
74715;SDS011;63234;37.558;127.058;2023-06-22T10:17:41;7.20;;;6.47;;
74715;SDS011;63234;37.558;127.058;2023-06-22T10:20:07;8.57;;;6.88;;
74715;SDS011;63234;37.558;127.058;2023-06-22T10:22:40;7.93;;;6.45;;
74715;SDS011;63234;37.558;127.058;2023-06-22T10:25:09;9.50;;;6.90;;
74715;SDS011;63234;37.558;127.058;2023-06-22T10:27:36;8.57;;;6.45;;
74715;SDS011;63234;37.558;127.058;2023-06-22T10:30:05;6.97;;;6.20;;
74715;SDS011;63234;37.558;127.058;2023-06-22T10:32:31;10.30;;;6.35;;
74715;SDS011;63234;37.558;127.058;2023-06-22T10:34:58;7.53;;;6.78;;
74715;SDS011;63234;37.558;127.058;2023-06-22T10:37:23;6.70;;;6.03;;
74715;SDS011;63234;37.558;127.058;2023-06-22T10:39:52;8.45;;;6.72;;
74715;SDS011;63234;37.558;127.058;2023-06-22T10:42:23;10.32;;;6.95;;
74715;SDS011;63234;37.558;127.058;2023-06-22T10:44:48;7.95;;;7.15;;
74715;SDS011;63234;37.558;127.058;2023-06-22T10:47:14;7.10;;;6.38;;
74715;SDS011;63234;37.558;127.058;2023-06-22T10:49:40;7.15;;;6.45;;
74715;SDS011;63234;37.558;127.058;2023-06-22T10:52:09;8.32;;;5.97;;
74715;SDS011;63234;37.558;127.058;2023-06-22T10:54:34;9.13;;;6.28;;
74715;SDS011;63234;37.558;127.058;2023-06-22T10:57:01;8.25;;;6.18;;
74715;SDS011;63234;37.558;127.058;2023-06-22T10:59:27;6.72;;;6.03;;
74715;SDS011;63234;37.558;127.058;2023-06-22T11:01:54;7.47;;;6.47;;
74715;SDS011;63234;37.558;127.058;2023-06-22T11:04:20;7.75;;;6.97;;
74715;SDS011;63234;37.558;127.058;2023-06-22T11:06:47;6.60;;;5.20;;
74715;SDS011;63234;37.558;127.058;2023-06-22T11:09:16;8.18;;;5.38;;
74715;SDS011;63234;37.558;127.058;2023-06-22T11:11:51;8.25;;;7.07;;
74715;SDS011;63234;37.558;127.058;2023-06-22T11:14:18;8.75;;;6.97;;
74715;SDS011;63234;37.558;127.058;2023-06-22T11:16:44;13.93;;;7.03;;
74715;SDS011;63234;37.558;127.058;2023-06-22T11:19:11;8.27;;;7.45;;
74715;SDS011;63234;37.558;127.058;2023-06-22T11:21:37;9.40;;;8.43;;
74715;SDS011;63234;37.558;127.058;2023-06-22T11:24:02;8.52;;;7.60;;
74715;SDS011;63234;37.558;127.058;2023-06-22T11:26:28;7.63;;;6.13;;
74715;SDS011;63234;37.558;127.058;2023-06-22T11:28:53;7.97;;;7.18;;
74715;SDS011;63234;37.558;127.058;2023-06-22T11:31:19;9.80;;;7.50;;
74715;SDS011;63234;37.558;127.058;2023-06-22T11:33:45;8.68;;;7.55;;
74715;SDS011;63234;37.558;127.058;2023-06-22T11:36:13;8.32;;;6.95;;
74715;SDS011;63234;37.558;127.058;2023-06-22T11:38:39;9.88;;;7.03;;
74715;SDS011;63234;37.558;127.058;2023-06-22T11:41:08;7.47;;;6.30;;
74715;SDS011;63234;37.558;127.058;2023-06-22T11:43:35;8.18;;;5.80;;
74715;SDS011;63234;37.558;127.058;2023-06-22T11:46:05;6.70;;;6.10;;
74715;SDS011;63234;37.558;127.058;2023-06-22T11:48:30;6.53;;;5.63;;
74715;SDS011;63234;37.558;127.058;2023-06-22T11:50:56;8.25;;;6.97;;
74715;SDS011;63234;37.558;127.058;2023-06-22T11:53:23;7.75;;;6.90;;
74715;SDS011;63234;37.558;127.058;2023-06-22T11:55:50;9.30;;;7.15;;
74715;SDS011;63234;37.558;127.058;2023-06-22T11:58:16;7.75;;;6.15;;
74715;SDS011;63234;37.558;127.058;2023-06-22T12:00:41;6.72;;;6.03;;
74715;SDS011;63234;37.558;127.058;2023-06-22T12:03:07;6.60;;;5.93;;
74715;SDS011;63234;37.558;127.058;2023-06-22T12:05:34;7.47;;;5.75;;
74715;SDS011;63234;37.558;127.058;2023-06-22T12:08:00;7.47;;;6.07;;
74715;SDS011;63234;37.558;127.058;2023-06-22T12:10:26;6.80;;;6.15;;
74715;SDS011;63234;37.558;127.058;2023-06-22T12:12:53;6.75;;;5.75;;
74715;SDS011;63234;37.558;127.058;2023-06-22T12:15:19;8.30;;;5.65;;
74715;SDS011;63234;37.558;127.058;2023-06-22T12:17:44;8.65;;;5.63;;
74715;SDS011;63234;37.558;127.058;2023-06-22T12:20:10;7.72;;;6.28;;
74715;SDS011;63234;37.558;127.058;2023-06-22T12:22:36;7.63;;;6.25;;
74715;SDS011;63234;37.558;127.058;2023-06-22T12:25:03;6.90;;;5.60;;
74715;SDS011;63234;37.558;127.058;2023-06-22T12:27:28;8.50;;;5.93;;
74715;SDS011;63234;37.558;127.058;2023-06-22T12:29:55;6.40;;;5.75;;
74715;SDS011;63234;37.558;127.058;2023-06-22T12:32:21;6.40;;;5.53;;
74715;SDS011;63234;37.558;127.058;2023-06-22T12:34:46;9.70;;;6.13;;
74715;SDS011;63234;37.558;127.058;2023-06-22T12:37:12;6.15;;;5.55;;
74715;SDS011;63234;37.558;127.058;2023-06-22T12:39:40;6.93;;;5.55;;
74715;SDS011;63234;37.558;127.058;2023-06-22T12:42:06;7.90;;;6.18;;
74715;SDS011;63234;37.558;127.058;2023-06-22T12:47:55;10.20;;;6.00;;
74715;SDS011;63234;37.558;127.058;2023-06-22T12:50:21;10.52;;;6.78;;
74715;SDS011;63234;37.558;127.058;2023-06-22T12:52:46;8.50;;;7.60;;
74715;SDS011;63234;37.558;127.058;2023-06-22T12:55:12;17.50;;;13.88;;
74715;SDS011;63234;37.558;127.058;2023-06-22T12:57:38;10.48;;;5.97;;
74715;SDS011;63234;37.558;127.058;2023-06-22T13:00:04;5.82;;;5.22;;
74715;SDS011;63234;37.558;127.058;2023-06-22T13:02:30;6.68;;;6.07;;
74715;SDS011;63234;37.558;127.058;2023-06-22T13:04:55;12.52;;;6.03;;
74715;SDS011;63234;37.558;127.058;2023-06-22T13:07:21;6.65;;;5.95;;
74715;SDS011;63234;37.558;127.058;2023-06-22T13:09:46;7.78;;;5.85;;
74715;SDS011;63234;37.558;127.058;2023-06-22T13:12:16;6.93;;;6.30;;
74715;SDS011;63234;37.558;127.058;2023-06-22T13:14:41;8.80;;;6.57;;
74715;SDS011;63234;37.558;127.058;2023-06-22T13:17:08;6.80;;;6.20;;
74715;SDS011;63234;37.558;127.058;2023-06-22T13:19:33;6.93;;;5.97;;
74715;SDS011;63234;37.558;127.058;2023-06-22T13:21:59;8.20;;;5.63;;
74715;SDS011;63234;37.558;127.058;2023-06-22T13:24:25;18.63;;;15.30;;
74715;SDS011;63234;37.558;127.058;2023-06-22T13:26:50;9.23;;;5.70;;
74715;SDS011;63234;37.558;127.058;2023-06-22T13:29:16;10.18;;;7.15;;
74715;SDS011;63234;37.558;127.058;2023-06-22T13:31:41;6.20;;;5.28;;
74715;SDS011;63234;37.558;127.058;2023-06-22T13:34:07;9.27;;;5.53;;
74715;SDS011;63234;37.558;127.058;2023-06-22T13:36:32;9.32;;;5.95;;
74715;SDS011;63234;37.558;127.058;2023-06-22T13:38:58;8.63;;;6.47;;
74715;SDS011;63234;37.558;127.058;2023-06-22T13:41:23;8.15;;;5.70;;
74715;SDS011;63234;37.558;127.058;2023-06-22T13:43:49;24.42;;;15.30;;
74715;SDS011;63234;37.558;127.058;2023-06-22T13:46:14;7.22;;;6.22;;
74715;SDS011;63234;37.558;127.058;2023-06-22T13:48:40;7.43;;;5.65;;
74715;SDS011;63234;37.558;127.058;2023-06-22T13:51:05;5.38;;;4.88;;
74715;SDS011;63234;37.558;127.058;2023-06-22T13:53:31;5.60;;;4.70;;
74715;SDS011;63234;37.558;127.058;2023-06-22T13:55:56;6.15;;;4.95;;
74715;SDS011;63234;37.558;127.058;2023-06-22T13:58:22;6.40;;;5.25;;
74715;SDS011;63234;37.558;127.058;2023-06-22T14:00:48;6.28;;;5.68;;
74715;SDS011;63234;37.558;127.058;2023-06-22T14:03:14;7.10;;;6.03;;
74715;SDS011;63234;37.558;127.058;2023-06-22T14:05:41;7.90;;;6.15;;
74715;SDS011;63234;37.558;127.058;2023-06-22T14:08:07;6.47;;;5.43;;
74715;SDS011;63234;37.558;127.058;2023-06-22T14:10:32;6.70;;;6.00;;
74715;SDS011;63234;37.558;127.058;2023-06-22T14:12:58;9.50;;;5.88;;
74715;SDS011;63234;37.558;127.058;2023-06-22T14:15:25;8.50;;;6.70;;
74715;SDS011;63234;37.558;127.058;2023-06-22T14:17:50;7.20;;;5.03;;
74715;SDS011;63234;37.558;127.058;2023-06-22T14:20:17;6.85;;;5.03;;
74715;SDS011;63234;37.558;127.058;2023-06-22T14:22:42;6.00;;;5.40;;
74715;SDS011;63234;37.558;127.058;2023-06-22T14:25:08;8.32;;;5.03;;
74715;SDS011;63234;37.558;127.058;2023-06-22T14:27:34;7.85;;;5.80;;
74715;SDS011;63234;37.558;127.058;2023-06-22T14:29:59;6.75;;;4.47;;
74715;SDS011;63234;37.558;127.058;2023-06-22T14:32:25;5.55;;;4.93;;
74715;SDS011;63234;37.558;127.058;2023-06-22T14:34:52;6.30;;;5.53;;
74715;SDS011;63234;37.558;127.058;2023-06-22T14:37:18;7.75;;;5.10;;
74715;SDS011;63234;37.558;127.058;2023-06-22T14:39:43;9.43;;;5.28;;
74715;SDS011;63234;37.558;127.058;2023-06-22T14:42:08;5.18;;;4.65;;
74715;SDS011;63234;37.558;127.058;2023-06-22T14:44:34;7.32;;;5.00;;
74715;SDS011;63234;37.558;127.058;2023-06-22T14:47:00;6.35;;;5.00;;
74715;SDS011;63234;37.558;127.058;2023-06-22T14:49:26;6.63;;;5.68;;
74715;SDS011;63234;37.558;127.058;2023-06-22T14:51:51;5.35;;;4.85;;
74715;SDS011;63234;37.558;127.058;2023-06-22T14:54:17;5.57;;;4.95;;
74715;SDS011;63234;37.558;127.058;2023-06-22T14:56:42;5.30;;;4.80;;
74715;SDS011;63234;37.558;127.058;2023-06-22T14:59:09;5.53;;;4.93;;
74715;SDS011;63234;37.558;127.058;2023-06-22T15:01:35;6.03;;;5.00;;
74715;SDS011;63234;37.558;127.058;2023-06-22T15:04:00;6.05;;;4.93;;
74715;SDS011;63234;37.558;127.058;2023-06-22T15:06:26;6.93;;;5.88;;
74715;SDS011;63234;37.558;127.058;2023-06-22T15:08:52;6.60;;;5.90;;
74715;SDS011;63234;37.558;127.058;2023-06-22T15:11:18;6.95;;;5.80;;
74715;SDS011;63234;37.558;127.058;2023-06-22T15:13:43;6.05;;;5.38;;
74715;SDS011;63234;37.558;127.058;2023-06-22T15:16:09;7.72;;;5.50;;
74715;SDS011;63234;37.558;127.058;2023-06-22T15:18:35;5.90;;;5.30;;
74715;SDS011;63234;37.558;127.058;2023-06-22T15:21:01;5.50;;;5.00;;
74715;SDS011;63234;37.558;127.058;2023-06-22T15:23:28;7.85;;;5.20;;
74715;SDS011;63234;37.558;127.058;2023-06-22T15:25:55;7.68;;;5.45;;
74715;SDS011;63234;37.558;127.058;2023-06-22T15:28:21;6.65;;;5.30;;
74715;SDS011;63234;37.558;127.058;2023-06-22T15:30:47;6.47;;;5.63;;
74715;SDS011;63234;37.558;127.058;2023-06-22T15:33:13;6.13;;;5.25;;
74715;SDS011;63234;37.558;127.058;2023-06-22T15:35:39;8.10;;;6.35;;
74715;SDS011;63234;37.558;127.058;2023-06-22T15:38:04;8.02;;;6.22;;
74715;SDS011;63234;37.558;127.058;2023-06-22T15:40:30;9.90;;;6.18;;
74715;SDS011;63234;37.558;127.058;2023-06-22T15:42:56;12.70;;;6.43;;
74715;SDS011;63234;37.558;127.058;2023-06-22T15:45:21;6.93;;;6.15;;
74715;SDS011;63234;37.558;127.058;2023-06-22T15:47:47;10.32;;;7.40;;
74715;SDS011;63234;37.558;127.058;2023-06-22T15:50:12;6.50;;;5.60;;
74715;SDS011;63234;37.558;127.058;2023-06-22T15:52:39;6.50;;;5.50;;
74715;SDS011;63234;37.558;127.058;2023-06-22T15:55:05;7.03;;;5.85;;
74715;SDS011;63234;37.558;127.058;2023-06-22T15:57:32;8.02;;;6.82;;
74715;SDS011;63234;37.558;127.058;2023-06-22T15:59:59;9.73;;;7.30;;
74715;SDS011;63234;37.558;127.058;2023-06-22T16:02:25;8.57;;;7.25;;
74715;SDS011;63234;37.558;127.058;2023-06-22T16:04:52;9.73;;;7.55;;
74715;SDS011;63234;37.558;127.058;2023-06-22T16:07:19;12.70;;;7.15;;
74715;SDS011;63234;37.558;127.058;2023-06-22T16:09:44;12.18;;;7.07;;
74715;SDS011;63234;37.558;127.058;2023-06-22T16:12:10;10.52;;;7.40;;
74715;SDS011;63234;37.558;127.058;2023-06-22T16:14:35;10.98;;;7.35;;
74715;SDS011;63234;37.558;127.058;2023-06-22T16:17:02;8.23;;;7.18;;
74715;SDS011;63234;37.558;127.058;2023-06-22T16:19:28;9.25;;;7.10;;
74715;SDS011;63234;37.558;127.058;2023-06-22T16:21:54;7.18;;;6.47;;
74715;SDS011;63234;37.558;127.058;2023-06-22T16:24:20;7.55;;;6.78;;
74715;SDS011;63234;37.558;127.058;2023-06-22T16:26:45;7.80;;;7.03;;
74715;SDS011;63234;37.558;127.058;2023-06-22T16:29:13;7.43;;;6.72;;
74715;SDS011;63234;37.558;127.058;2023-06-22T16:31:39;10.32;;;7.63;;
74715;SDS011;63234;37.558;127.058;2023-06-22T16:34:04;8.75;;;7.03;;
74715;SDS011;63234;37.558;127.058;2023-06-22T16:36:30;8.10;;;6.72;;
74715;SDS011;63234;37.558;127.058;2023-06-22T16:38:55;8.80;;;7.40;;
74715;SDS011;63234;37.558;127.058;2023-06-22T16:41:21;9.30;;;8.15;;
74715;SDS011;63234;37.558;127.058;2023-06-22T16:43:47;11.65;;;7.97;;
74715;SDS011;63234;37.558;127.058;2023-06-22T16:46:13;8.20;;;7.40;;
74715;SDS011;63234;37.558;127.058;2023-06-22T16:48:38;17.88;;;8.07;;
74715;SDS011;63234;37.558;127.058;2023-06-22T16:51:04;13.40;;;7.50;;
74715;SDS011;63234;37.558;127.058;2023-06-22T16:53:30;8.70;;;7.60;;
74715;SDS011;63234;37.558;127.058;2023-06-22T16:55:56;10.25;;;8.02;;
74715;SDS011;63234;37.558;127.058;2023-06-22T16:58:23;8.98;;;8.07;;
74715;SDS011;63234;37.558;127.058;2023-06-22T17:00:52;9.20;;;8.05;;
74715;SDS011;63234;37.558;127.058;2023-06-22T17:03:28;10.43;;;9.38;;
74715;SDS011;63234;37.558;127.058;2023-06-22T17:05:57;10.65;;;8.43;;
74715;SDS011;63234;37.558;127.058;2023-06-22T17:08:23;11.35;;;9.77;;
74715;SDS011;63234;37.558;127.058;2023-06-22T17:10:52;9.77;;;8.85;;
74715;SDS011;63234;37.558;127.058;2023-06-22T17:13:17;10.82;;;9.27;;
74715;SDS011;63234;37.558;127.058;2023-06-22T17:15:43;10.98;;;8.77;;
74715;SDS011;63234;37.558;127.058;2023-06-22T17:18:09;10.32;;;9.07;;
74715;SDS011;63234;37.558;127.058;2023-06-22T17:20:36;10.27;;;9.27;;
74715;SDS011;63234;37.558;127.058;2023-06-22T17:23:02;11.98;;;9.57;;
74715;SDS011;63234;37.558;127.058;2023-06-22T17:25:28;11.80;;;9.32;;
74715;SDS011;63234;37.558;127.058;2023-06-22T17:28:00;16.83;;;11.27;;
74715;SDS011;63234;37.558;127.058;2023-06-22T17:30:26;14.05;;;10.38;;
74715;SDS011;63234;37.558;127.058;2023-06-22T17:32:52;12.52;;;11.23;;
74715;SDS011;63234;37.558;127.058;2023-06-22T17:35:18;12.65;;;11.10;;
74715;SDS011;63234;37.558;127.058;2023-06-22T17:40:18;12.07;;;9.90;;
74715;SDS011;63234;37.558;127.058;2023-06-22T17:42:45;13.02;;;10.20;;
74715;SDS011;63234;37.558;127.058;2023-06-22T17:45:14;10.50;;;9.40;;
74715;SDS011;63234;37.558;127.058;2023-06-22T17:47:41;13.07;;;10.32;;
74715;SDS011;63234;37.558;127.058;2023-06-22T17:50:06;13.05;;;9.25;;
74715;SDS011;63234;37.558;127.058;2023-06-22T17:52:33;11.77;;;10.02;;
74715;SDS011;63234;37.558;127.058;2023-06-22T17:55:00;10.38;;;9.25;;
74715;SDS011;63234;37.558;127.058;2023-06-22T17:57:31;12.30;;;9.57;;
74715;SDS011;63234;37.558;127.058;2023-06-22T18:00:01;15.18;;;10.45;;
74715;SDS011;63234;37.558;127.058;2023-06-22T18:02:30;13.20;;;9.52;;
74715;SDS011;63234;37.558;127.058;2023-06-22T18:05:02;14.65;;;9.82;;
74715;SDS011;63234;37.558;127.058;2023-06-22T18:07:28;14.55;;;10.00;;
74715;SDS011;63234;37.558;127.058;2023-06-22T18:09:55;15.80;;;11.32;;
74715;SDS011;63234;37.558;127.058;2023-06-22T18:12:23;17.05;;;11.25;;
74715;SDS011;63234;37.558;127.058;2023-06-22T18:14:49;19.42;;;11.68;;
74715;SDS011;63234;37.558;127.058;2023-06-22T18:17:15;12.80;;;10.90;;
74715;SDS011;63234;37.558;127.058;2023-06-22T18:19:45;16.05;;;11.30;;
74715;SDS011;63234;37.558;127.058;2023-06-22T18:22:12;17.75;;;11.20;;
74715;SDS011;63234;37.558;127.058;2023-06-22T18:24:39;16.75;;;11.55;;
74715;SDS011;63234;37.558;127.058;2023-06-22T18:27:05;19.48;;;11.88;;
74715;SDS011;63234;37.558;127.058;2023-06-22T18:29:31;18.63;;;13.32;;
74715;SDS011;63234;37.558;127.058;2023-06-22T18:31:57;15.25;;;11.38;;
74715;SDS011;63234;37.558;127.058;2023-06-22T18:34:23;14.63;;;11.57;;
74715;SDS011;63234;37.558;127.058;2023-06-22T18:36:49;12.68;;;10.73;;
74715;SDS011;63234;37.558;127.058;2023-06-22T18:39:18;14.93;;;11.55;;
74715;SDS011;63234;37.558;127.058;2023-06-22T18:41:50;16.08;;;10.90;;
74715;SDS011;63234;37.558;127.058;2023-06-22T18:46:49;16.55;;;10.63;;
74715;SDS011;63234;37.558;127.058;2023-06-22T18:49:17;13.82;;;10.90;;
74715;SDS011;63234;37.558;127.058;2023-06-22T18:54:42;14.20;;;10.65;;
74715;SDS011;63234;37.558;127.058;2023-06-22T18:57:27;15.55;;;10.88;;
74715;SDS011;63234;37.558;127.058;2023-06-22T19:10:27;13.63;;;10.00;;
74715;SDS011;63234;37.558;127.058;2023-06-22T19:15:41;13.98;;;10.85;;
74715;SDS011;63234;37.558;127.058;2023-06-22T19:20:47;13.65;;;10.05;;
74715;SDS011;63234;37.558;127.058;2023-06-22T19:23:23;18.52;;;9.48;;
74715;SDS011;63234;37.558;127.058;2023-06-22T19:25:56;13.38;;;10.80;;
74715;SDS011;63234;37.558;127.058;2023-06-22T19:28:26;18.48;;;10.32;;
74715;SDS011;63234;37.558;127.058;2023-06-22T19:30:53;12.73;;;10.35;;
74715;SDS011;63234;37.558;127.058;2023-06-22T19:33:20;14.95;;;10.48;;
74715;SDS011;63234;37.558;127.058;2023-06-22T19:35:47;25.13;;;10.38;;
74715;SDS011;63234;37.558;127.058;2023-06-22T19:38:16;17.02;;;10.18;;
74715;SDS011;63234;37.558;127.058;2023-06-22T19:40:43;13.18;;;10.70;;
74715;SDS011;63234;37.558;127.058;2023-06-22T19:43:09;15.70;;;10.80;;
74715;SDS011;63234;37.558;127.058;2023-06-22T19:45:38;13.65;;;10.15;;
74715;SDS011;63234;37.558;127.058;2023-06-22T19:48:06;16.10;;;9.88;;
74715;SDS011;63234;37.558;127.058;2023-06-22T19:50:40;14.60;;;10.43;;
74715;SDS011;63234;37.558;127.058;2023-06-22T19:53:14;16.50;;;10.32;;
74715;SDS011;63234;37.558;127.058;2023-06-22T19:55:41;16.23;;;12.02;;
74715;SDS011;63234;37.558;127.058;2023-06-22T19:58:15;17.20;;;10.70;;
74715;SDS011;63234;37.558;127.058;2023-06-22T20:00:41;17.05;;;11.13;;
74715;SDS011;63234;37.558;127.058;2023-06-22T20:03:15;16.73;;;10.65;;
74715;SDS011;63234;37.558;127.058;2023-06-22T20:05:41;13.93;;;11.05;;
74715;SDS011;63234;37.558;127.058;2023-06-22T20:08:14;13.90;;;10.82;;
74715;SDS011;63234;37.558;127.058;2023-06-22T20:10:42;13.68;;;10.18;;
74715;SDS011;63234;37.558;127.058;2023-06-22T20:13:12;17.17;;;10.13;;
74715;SDS011;63234;37.558;127.058;2023-06-22T20:15:39;14.60;;;10.10;;
74715;SDS011;63234;37.558;127.058;2023-06-22T20:18:08;14.15;;;10.25;;
74715;SDS011;63234;37.558;127.058;2023-06-22T20:20:35;24.20;;;10.63;;
74715;SDS011;63234;37.558;127.058;2023-06-22T20:23:03;17.58;;;10.43;;
74715;SDS011;63234;37.558;127.058;2023-06-22T20:25:34;13.10;;;10.55;;
74715;SDS011;63234;37.558;127.058;2023-06-22T20:28:11;16.88;;;11.43;;
74715;SDS011;63234;37.558;127.058;2023-06-22T20:30:39;16.15;;;11.23;;
74715;SDS011;63234;37.558;127.058;2023-06-22T20:33:16;18.80;;;11.10;;
74715;SDS011;63234;37.558;127.058;2023-06-22T20:35:42;14.57;;;10.13;;
74715;SDS011;63234;37.558;127.058;2023-06-22T20:38:09;14.07;;;9.77;;
74715;SDS011;63234;37.558;127.058;2023-06-22T20:40:35;16.08;;;9.93;;
74715;SDS011;63234;37.558;127.058;2023-06-22T20:43:01;14.35;;;9.98;;
74715;SDS011;63234;37.558;127.058;2023-06-22T20:45:27;14.40;;;10.13;;
74715;SDS011;63234;37.558;127.058;2023-06-22T20:47:54;17.65;;;10.52;;
74715;SDS011;63234;37.558;127.058;2023-06-22T20:50:24;14.70;;;10.70;;
74715;SDS011;63234;37.558;127.058;2023-06-22T20:52:58;15.65;;;10.70;;
74715;SDS011;63234;37.558;127.058;2023-06-22T20:55:24;16.42;;;11.85;;
74715;SDS011;63234;37.558;127.058;2023-06-22T20:57:51;18.63;;;11.93;;
74715;SDS011;63234;37.558;127.058;2023-06-22T21:00:17;16.58;;;11.05;;
74715;SDS011;63234;37.558;127.058;2023-06-22T21:02:43;13.25;;;10.60;;
74715;SDS011;63234;37.558;127.058;2023-06-22T21:05:09;16.60;;;11.00;;
74715;SDS011;63234;37.558;127.058;2023-06-22T21:07:38;16.88;;;10.80;;
74715;SDS011;63234;37.558;127.058;2023-06-22T21:10:04;18.20;;;9.65;;
74715;SDS011;63234;37.558;127.058;2023-06-22T21:12:30;14.70;;;10.18;;
74715;SDS011;63234;37.558;127.058;2023-06-22T21:14:58;14.77;;;10.40;;
74715;SDS011;63234;37.558;127.058;2023-06-22T21:17:24;15.55;;;11.23;;
74715;SDS011;63234;37.558;127.058;2023-06-22T21:19:50;18.63;;;11.07;;
74715;SDS011;63234;37.558;127.058;2023-06-22T21:22:16;13.52;;;10.02;;
74715;SDS011;63234;37.558;127.058;2023-06-22T21:24:44;15.75;;;11.00;;
74715;SDS011;63234;37.558;127.058;2023-06-22T21:27:10;14.35;;;10.68;;
74715;SDS011;63234;37.558;127.058;2023-06-22T21:29:36;14.70;;;11.25;;
74715;SDS011;63234;37.558;127.058;2023-06-22T21:32:01;12.18;;;10.30;;
74715;SDS011;63234;37.558;127.058;2023-06-22T21:34:27;15.23;;;10.52;;
74715;SDS011;63234;37.558;127.058;2023-06-22T21:36:53;15.13;;;11.18;;
74715;SDS011;63234;37.558;127.058;2023-06-22T21:39:19;16.65;;;11.10;;
74715;SDS011;63234;37.558;127.058;2023-06-22T21:41:44;17.77;;;10.45;;
74715;SDS011;63234;37.558;127.058;2023-06-22T21:44:16;12.85;;;9.82;;
74715;SDS011;63234;37.558;127.058;2023-06-22T21:46:42;10.73;;;9.60;;
74715;SDS011;63234;37.558;127.058;2023-06-22T21:49:07;14.07;;;9.75;;
74715;SDS011;63234;37.558;127.058;2023-06-22T21:51:33;15.45;;;9.48;;
74715;SDS011;63234;37.558;127.058;2023-06-22T21:54:02;11.95;;;8.93;;
74715;SDS011;63234;37.558;127.058;2023-06-22T21:56:27;12.82;;;9.60;;
74715;SDS011;63234;37.558;127.058;2023-06-22T21:58:53;12.00;;;9.02;;
74715;SDS011;63234;37.558;127.058;2023-06-22T22:01:18;20.23;;;10.40;;
74715;SDS011;63234;37.558;127.058;2023-06-22T22:03:44;14.18;;;9.80;;
74715;SDS011;63234;37.558;127.058;2023-06-22T22:06:09;13.95;;;9.98;;
74715;SDS011;63234;37.558;127.058;2023-06-22T22:08:35;15.25;;;10.35;;
74715;SDS011;63234;37.558;127.058;2023-06-22T22:11:01;11.68;;;10.25;;
74715;SDS011;63234;37.558;127.058;2023-06-22T22:13:27;15.45;;;10.13;;
74715;SDS011;63234;37.558;127.058;2023-06-22T22:15:53;13.35;;;10.20;;
74715;SDS011;63234;37.558;127.058;2023-06-22T22:18:18;13.63;;;10.52;;
74715;SDS011;63234;37.558;127.058;2023-06-22T22:20:43;14.57;;;9.95;;
74715;SDS011;63234;37.558;127.058;2023-06-22T22:23:09;15.40;;;10.20;;
74715;SDS011;63234;37.558;127.058;2023-06-22T22:25:34;12.82;;;9.15;;
74715;SDS011;63234;37.558;127.058;2023-06-22T22:28:00;16.75;;;9.77;;
74715;SDS011;63234;37.558;127.058;2023-06-22T22:30:25;19.23;;;12.32;;
74715;SDS011;63234;37.558;127.058;2023-06-22T22:32:51;15.57;;;11.65;;
74715;SDS011;63234;37.558;127.058;2023-06-22T22:35:16;16.77;;;11.15;;
74715;SDS011;63234;37.558;127.058;2023-06-22T22:37:42;15.82;;;11.32;;
74715;SDS011;63234;37.558;127.058;2023-06-22T22:40:08;15.02;;;11.45;;
74715;SDS011;63234;37.558;127.058;2023-06-22T22:42:37;15.50;;;10.57;;
74715;SDS011;63234;37.558;127.058;2023-06-22T22:45:03;20.65;;;10.50;;
74715;SDS011;63234;37.558;127.058;2023-06-22T22:47:29;16.33;;;11.48;;
74715;SDS011;63234;37.558;127.058;2023-06-22T22:49:56;14.45;;;10.35;;
74715;SDS011;63234;37.558;127.058;2023-06-22T22:52:21;16.38;;;11.60;;
74715;SDS011;63234;37.558;127.058;2023-06-22T22:54:47;14.27;;;11.15;;
74715;SDS011;63234;37.558;127.058;2023-06-22T22:57:13;14.68;;;11.02;;
74715;SDS011;63234;37.558;127.058;2023-06-22T22:59:39;14.43;;;11.20;;
74715;SDS011;63234;37.558;127.058;2023-06-22T23:02:04;15.70;;;11.25;;
74715;SDS011;63234;37.558;127.058;2023-06-22T23:04:30;13.88;;;11.32;;
74715;SDS011;63234;37.558;127.058;2023-06-22T23:06:56;12.77;;;10.57;;
74715;SDS011;63234;37.558;127.058;2023-06-22T23:09:22;19.27;;;11.00;;
74715;SDS011;63234;37.558;127.058;2023-06-22T23:11:47;14.90;;;11.05;;
74715;SDS011;63234;37.558;127.058;2023-06-22T23:14:13;16.13;;;10.77;;
74715;SDS011;63234;37.558;127.058;2023-06-22T23:16:40;18.17;;;11.00;;
74715;SDS011;63234;37.558;127.058;2023-06-22T23:19:05;18.23;;;10.90;;
74715;SDS011;63234;37.558;127.058;2023-06-22T23:21:31;15.07;;;11.25;;
74715;SDS011;63234;37.558;127.058;2023-06-22T23:23:57;13.82;;;9.95;;
74715;SDS011;63234;37.558;127.058;2023-06-22T23:26:23;14.55;;;10.32;;
74715;SDS011;63234;37.558;127.058;2023-06-22T23:28:50;15.63;;;10.45;;
74715;SDS011;63234;37.558;127.058;2023-06-22T23:31:15;13.00;;;10.15;;
74715;SDS011;63234;37.558;127.058;2023-06-22T23:33:41;13.23;;;10.18;;
74715;SDS011;63234;37.558;127.058;2023-06-22T23:36:07;14.00;;;9.93;;
74715;SDS011;63234;37.558;127.058;2023-06-22T23:38:33;15.48;;;11.02;;
74715;SDS011;63234;37.558;127.058;2023-06-22T23:40:58;14.32;;;10.50;;
74715;SDS011;63234;37.558;127.058;2023-06-22T23:43:25;11.65;;;9.52;;
74715;SDS011;63234;37.558;127.058;2023-06-22T23:45:50;13.48;;;9.15;;
74715;SDS011;63234;37.558;127.058;2023-06-22T23:48:16;13.82;;;10.10;;
74715;SDS011;63234;37.558;127.058;2023-06-22T23:50:41;10.52;;;9.18;;
74715;SDS011;63234;37.558;127.058;2023-06-22T23:53:06;13.57;;;10.27;;
74715;SDS011;63234;37.558;127.058;2023-06-22T23:55:34;15.40;;;9.82;;
74715;SDS011;63234;37.558;127.058;2023-06-22T23:58:00;11.57;;;9.52;;
